createdAt,value
2018-09-26T00:00:48.492Z,6.20
2018-09-26T00:03:27.382Z,7.47
2018-09-26T00:05:56.622Z,8.13
2018-09-26T00:08:25.473Z,5.93
2018-09-26T00:10:54.451Z,10.83
2018-09-26T00:13:23.265Z,5.27
2018-09-26T00:15:52.117Z,8.17
2018-09-26T00:18:21.127Z,6.20
2018-09-26T00:20:50.768Z,7.87
2018-09-26T00:23:19.748Z,6.00
2018-09-26T00:25:48.690Z,4.57
2018-09-26T00:28:17.573Z,8.03
2018-09-26T00:30:46.430Z,5.90
2018-09-26T00:33:15.895Z,8.10
2018-09-26T00:35:45.293Z,7.60
2018-09-26T00:38:14.201Z,10.33
2018-09-26T00:40:43.101Z,7.00
2018-09-26T00:43:11.966Z,5.80
2018-09-26T00:45:40.786Z,6.27
2018-09-26T00:48:10.338Z,5.80
2018-09-26T00:50:40.131Z,4.77
2018-09-26T00:53:09.040Z,7.13
2018-09-26T00:55:38.478Z,7.23
2018-09-26T00:58:08.089Z,5.20
2018-09-26T01:00:37.304Z,6.97
2018-09-26T01:03:06.597Z,6.80
2018-09-26T01:05:36.052Z,10.17
2018-09-26T01:08:05.760Z,7.13
2018-09-26T01:10:35.142Z,4.60
2018-09-26T01:13:04.324Z,12.30
2018-09-26T01:15:33.287Z,4.70
2018-09-26T01:18:02.804Z,4.07
2018-09-26T01:20:31.717Z,7.10
2018-09-26T01:23:00.633Z,8.80
2018-09-26T01:25:29.514Z,7.13
2018-09-26T01:27:58.688Z,6.80
2018-09-26T01:30:28.216Z,7.03
2018-09-26T01:32:57.180Z,4.60
2018-09-26T01:35:26.122Z,5.37
2018-09-26T01:37:54.943Z,5.10
2018-09-26T01:40:23.924Z,8.73
2018-09-26T01:42:52.936Z,12.43
2018-09-26T01:45:21.893Z,8.23
2018-09-26T01:47:51.067Z,7.67
2018-09-26T01:50:19.997Z,6.40
2018-09-26T01:52:48.816Z,7.17
2018-09-26T01:55:17.754Z,7.73
2018-09-26T01:57:46.540Z,12.30
2018-09-26T02:00:15.367Z,8.97
2018-09-26T02:02:44.172Z,5.70
2018-09-26T02:05:13.080Z,8.27
2018-09-26T02:07:41.923Z,5.80
2018-09-26T02:10:10.816Z,9.13
2018-09-26T02:12:39.599Z,4.80
2018-09-26T02:15:08.857Z,7.00
2018-09-26T02:17:37.720Z,9.90
2018-09-26T02:20:06.808Z,5.00
2018-09-26T02:22:35.572Z,9.13
2018-09-26T02:25:04.807Z,6.20
2018-09-26T02:27:33.696Z,7.53
2018-09-26T02:30:02.589Z,5.30
2018-09-26T02:32:31.447Z,6.17
2018-09-26T02:35:00.272Z,8.67
2018-09-26T02:37:29.160Z,9.27
2018-09-26T02:39:58.044Z,6.43
2018-09-26T02:42:26.943Z,6.53
2018-09-26T02:44:55.827Z,6.90
2018-09-26T02:47:24.748Z,8.10
2018-09-26T02:49:53.560Z,7.10
2018-09-26T02:52:22.375Z,4.60
2018-09-26T02:54:51.232Z,5.60
2018-09-26T02:57:20.044Z,5.53
2018-09-26T02:59:48.908Z,4.77
2018-09-26T03:02:17.750Z,5.80
2018-09-26T03:04:46.653Z,9.70
2018-09-26T03:07:15.547Z,9.53
2018-09-26T03:09:44.432Z,8.93
2018-09-26T03:12:19.463Z,7.13
2018-09-26T03:14:48.324Z,7.90
2018-09-26T03:17:17.125Z,6.97
2018-09-26T03:19:45.915Z,8.10
2018-09-26T03:22:14.997Z,5.87
2018-09-26T03:24:43.926Z,7.40
2018-09-26T03:27:12.808Z,5.27
2018-09-26T03:29:41.721Z,8.73
2018-09-26T03:32:10.574Z,5.73
2018-09-26T03:34:39.449Z,10.20
2018-09-26T03:37:09.298Z,7.60
2018-09-26T03:39:38.186Z,7.90
2018-09-26T03:42:07.146Z,7.40
2018-09-26T03:44:36.041Z,6.33
2018-09-26T03:47:05.074Z,8.53
2018-09-26T03:49:34.251Z,7.00
2018-09-26T03:52:03.157Z,9.73
2018-09-26T03:54:32.343Z,5.87
2018-09-26T03:57:01.237Z,6.50
2018-09-26T03:59:30.109Z,7.73
2018-09-26T04:01:59.268Z,10.00
2018-09-26T04:04:28.118Z,6.10
2018-09-26T04:06:56.936Z,6.97
2018-09-26T04:09:25.861Z,7.70
2018-09-26T04:11:54.673Z,12.30
2018-09-26T04:14:23.577Z,9.60
2018-09-26T04:16:52.469Z,8.10
2018-09-26T04:19:21.420Z,5.17
2018-09-26T04:21:50.290Z,13.53
2018-09-26T04:24:19.162Z,8.70
2018-09-26T04:26:48.225Z,5.80
2018-09-26T04:29:17.121Z,9.17
2018-09-26T04:31:46.024Z,8.50
2018-09-26T04:34:14.952Z,7.73
2018-09-26T04:36:43.763Z,11.03
2018-09-26T04:39:13.446Z,5.13
2018-09-26T04:41:42.340Z,8.00
2018-09-26T04:44:11.182Z,5.50
2018-09-26T04:46:40.074Z,6.63
2018-09-26T04:49:09.078Z,11.60
2018-09-26T04:51:37.900Z,9.83
2018-09-26T04:54:07.345Z,8.53
2018-09-26T04:56:37.164Z,6.70
2018-09-26T04:59:06.280Z,8.90
2018-09-26T05:01:35.966Z,7.20
2018-09-26T05:04:04.932Z,11.60
2018-09-26T05:06:33.768Z,6.03
2018-09-26T05:09:02.905Z,6.93
2018-09-26T05:11:31.784Z,6.53
2018-09-26T05:14:00.622Z,9.17
2018-09-26T05:16:29.604Z,6.33
2018-09-26T05:18:58.519Z,13.83
2018-09-26T05:21:28.412Z,5.67
2018-09-26T05:23:57.269Z,6.77
2018-09-26T05:26:26.181Z,8.00
2018-09-26T05:28:55.049Z,7.50
2018-09-26T05:31:24.215Z,7.20
2018-09-26T05:33:53.057Z,12.03
2018-09-26T05:36:22.416Z,7.67
2018-09-26T05:38:51.336Z,12.93
2018-09-26T05:41:20.902Z,9.50
2018-09-26T05:43:52.689Z,7.10
2018-09-26T05:46:21.551Z,12.37
2018-09-26T05:48:50.722Z,7.93
2018-09-26T05:51:19.604Z,9.87
2018-09-26T05:53:48.476Z,10.87
2018-09-26T05:56:17.666Z,7.43
2018-09-26T05:58:46.526Z,7.80
2018-09-26T06:01:15.445Z,6.23
2018-09-26T06:03:44.301Z,7.97
2018-09-26T06:06:13.203Z,8.40
2018-09-26T06:08:42.032Z,6.27
2018-09-26T06:11:10.993Z,6.27
2018-09-26T06:13:40.067Z,9.03
2018-09-26T06:16:09.072Z,9.83
2018-09-26T06:18:39.526Z,7.93
2018-09-26T06:21:10.360Z,14.43
2018-09-26T06:23:39.419Z,7.97
2018-09-26T06:26:08.414Z,6.80
2018-09-26T06:28:37.953Z,14.23
2018-09-26T06:31:06.802Z,6.23
2018-09-26T06:33:36.405Z,10.37
2018-09-26T06:36:05.703Z,11.20
2018-09-26T06:38:34.598Z,8.07
2018-09-26T06:41:03.492Z,5.73
2018-09-26T06:43:32.981Z,8.03
2018-09-26T06:46:02.895Z,12.20
2018-09-26T06:48:31.900Z,7.13
2018-09-26T06:51:00.836Z,12.97
2018-09-26T06:53:29.692Z,8.43
2018-09-26T06:55:58.600Z,6.17
2018-09-26T06:58:27.521Z,12.20
2018-09-26T07:00:57.885Z,9.30
2018-09-26T07:03:26.813Z,15.13
2018-09-26T07:05:56.704Z,6.70
2018-09-26T07:08:25.628Z,7.93
2018-09-26T07:10:54.437Z,12.10
2018-09-26T07:13:23.304Z,12.80
2018-09-26T07:15:52.209Z,9.67
2018-09-26T07:18:21.048Z,7.47
2018-09-26T07:20:50.144Z,9.30
2018-09-26T07:23:19.073Z,7.87
2018-09-26T07:25:48.546Z,7.53
2018-09-26T07:28:17.511Z,6.80
2018-09-26T07:30:46.698Z,12.13
2018-09-26T07:33:16.020Z,7.87
2018-09-26T07:35:45.022Z,9.33
2018-09-26T07:38:14.844Z,9.00
2018-09-26T07:40:43.757Z,6.97
2018-09-26T07:43:13.711Z,9.60
2018-09-26T07:45:44.324Z,6.30
2018-09-26T07:48:13.161Z,7.80
2018-09-26T07:50:42.157Z,7.13
2018-09-26T07:53:11.224Z,11.80
2018-09-26T07:55:41.070Z,6.07
2018-09-26T07:58:10.031Z,6.80
2018-09-26T08:00:38.888Z,11.10
2018-09-26T08:03:08.862Z,8.00
2018-09-26T08:05:38.701Z,6.70
2018-09-26T08:08:07.562Z,13.63
2018-09-26T08:10:36.456Z,8.67
2018-09-26T08:13:05.407Z,9.43
2018-09-26T08:15:34.284Z,6.80
2018-09-26T08:18:03.271Z,11.07
2018-09-26T08:20:32.198Z,7.33
2018-09-26T08:23:01.636Z,8.10
2018-09-26T08:25:31.157Z,7.13
2018-09-26T08:28:00.639Z,7.37
2018-09-26T08:30:29.497Z,6.50
2018-09-26T08:32:58.365Z,11.03
2018-09-26T08:35:27.213Z,8.30
2018-09-26T08:37:56.200Z,7.53
2018-09-26T08:40:25.585Z,6.83
2018-09-26T08:42:54.478Z,8.63
2018-09-26T08:45:24.489Z,10.93
2018-09-26T08:47:53.778Z,7.20
2018-09-26T08:50:22.687Z,11.00
2018-09-26T08:52:51.698Z,6.90
2018-09-26T08:55:21.591Z,7.40
2018-09-26T08:58:01.148Z,8.10
2018-09-26T09:07:38.992Z,6.57
2018-09-26T09:10:07.956Z,9.90
2018-09-26T09:12:36.841Z,9.23
2018-09-26T09:15:05.838Z,6.07
2018-09-26T09:17:34.704Z,8.70
2018-09-26T09:20:03.774Z,8.47
2018-09-26T09:22:32.936Z,10.67
2018-09-26T09:25:02.165Z,11.57
2018-09-26T09:27:31.190Z,8.10
2018-09-26T09:30:00.097Z,6.57
2018-09-26T09:32:28.873Z,8.17
2018-09-26T09:34:57.887Z,6.53
2018-09-26T09:37:26.856Z,7.37
2018-09-26T09:39:56.827Z,9.57
2018-09-26T09:42:25.769Z,6.47
2018-09-26T09:44:54.724Z,6.63
2018-09-26T09:47:23.812Z,6.87
2018-09-26T09:49:53.045Z,7.53
2018-09-26T09:52:22.315Z,7.63
2018-09-26T09:54:51.276Z,13.00
2018-09-26T09:57:20.304Z,7.23
2018-09-26T09:59:49.645Z,9.30
2018-09-26T10:02:18.648Z,10.67
2018-09-26T10:04:47.648Z,12.13
2018-09-26T10:07:16.624Z,12.20
2018-09-26T10:09:45.513Z,10.93
2018-09-26T10:12:14.476Z,8.80
2018-09-26T10:14:43.367Z,8.70
2018-09-26T10:17:12.301Z,7.77
2018-09-26T10:19:41.318Z,10.70
2018-09-26T10:22:12.084Z,6.03
2018-09-26T10:24:41.131Z,7.50
2018-09-26T10:27:10.174Z,6.60
2018-09-26T10:29:39.196Z,8.67
2018-09-26T10:32:08.203Z,11.97
2018-09-26T10:34:37.248Z,8.77
2018-09-26T10:37:06.175Z,5.30
2018-09-26T10:39:35.038Z,11.00
2018-09-26T10:42:04.126Z,9.50
2018-09-26T10:44:33.047Z,10.53
2018-09-26T10:47:02.102Z,7.27
2018-09-26T10:49:31.107Z,9.67
2018-09-26T10:51:59.984Z,7.80
2018-09-26T10:54:28.985Z,7.47
2018-09-26T10:56:58.092Z,7.33
2018-09-26T10:59:27.062Z,7.30
2018-09-26T11:01:56.330Z,12.47
2018-09-26T11:04:25.527Z,5.00
2018-09-26T11:06:54.563Z,4.33
2018-09-26T11:09:23.494Z,8.57
2018-09-26T11:11:52.653Z,5.20
2018-09-26T11:14:21.663Z,7.73
2018-09-26T11:16:50.573Z,6.07
2018-09-26T11:19:19.545Z,4.63
2018-09-26T11:21:48.505Z,5.40
2018-09-26T11:24:17.616Z,8.33
2018-09-26T11:26:46.574Z,10.93
2018-09-26T11:29:15.552Z,6.23
2018-09-26T11:31:45.452Z,6.90
2018-09-26T11:34:14.427Z,9.90
2018-09-26T11:36:43.383Z,10.00
2018-09-26T11:39:12.484Z,6.07
2018-09-26T11:41:41.397Z,7.57
2018-09-26T11:44:10.383Z,11.07
2018-09-26T11:46:39.231Z,6.93
2018-09-26T11:49:08.159Z,7.10
2018-09-26T11:51:37.353Z,11.63
2018-09-26T11:54:06.397Z,7.60
2018-09-26T11:56:35.245Z,11.60
2018-09-26T11:59:04.680Z,9.90
2018-09-26T12:01:33.682Z,8.40
2018-09-26T12:04:02.561Z,7.30
2018-09-26T12:06:31.827Z,9.37
2018-09-26T12:09:00.761Z,6.63
2018-09-26T12:11:29.705Z,6.07
2018-09-26T12:13:58.901Z,10.40
2018-09-26T12:16:27.877Z,13.97
2018-09-26T12:18:56.852Z,6.10
2018-09-26T12:21:30.537Z,7.63
2018-09-26T12:23:54.667Z,7.43
2018-09-26T12:26:23.645Z,10.60
2018-09-26T12:28:52.496Z,9.53
2018-09-26T12:31:21.612Z,8.80
2018-09-26T12:33:50.489Z,8.07
2018-09-26T12:36:22.107Z,6.93
2018-09-26T12:38:51.769Z,8.50
2018-09-26T12:41:20.929Z,19.10
2018-09-26T12:43:49.820Z,10.70
2018-09-26T12:46:19.202Z,9.67
2018-09-26T12:48:48.080Z,6.03
2018-09-26T12:51:17.047Z,6.93
2018-09-26T12:53:46.569Z,13.53
2018-09-26T12:56:16.250Z,8.13
2018-09-26T12:58:46.440Z,9.20
2018-09-26T13:01:16.336Z,11.13
2018-09-26T13:03:45.340Z,13.87
2018-09-26T13:06:14.278Z,9.27
2018-09-26T13:08:43.788Z,7.60
2018-09-26T13:11:12.783Z,6.57
2018-09-26T13:13:41.588Z,9.10
2018-09-26T13:16:11.438Z,8.90
2018-09-26T13:18:41.313Z,6.70
2018-09-26T13:21:10.369Z,6.50
2018-09-26T13:23:39.317Z,9.57
2018-09-26T13:26:08.341Z,6.37
2018-09-26T13:28:37.286Z,10.10
2018-09-26T13:31:06.453Z,9.30
2018-09-26T13:33:35.802Z,7.80
2018-09-26T13:36:04.885Z,11.07
2018-09-26T13:38:34.357Z,10.23
2018-09-26T13:41:03.267Z,8.53
2018-09-26T13:43:32.116Z,8.20
2018-09-26T13:46:01.300Z,10.03
2018-09-26T13:48:30.277Z,8.10
2018-09-26T13:50:59.282Z,8.37
2018-09-26T13:53:28.201Z,9.33
2018-09-26T13:55:57.192Z,6.67
2018-09-26T13:58:26.117Z,8.30
2018-09-26T14:00:55.020Z,9.23
2018-09-26T14:03:24.156Z,6.53
2018-09-26T14:05:53.060Z,9.00
2018-09-26T14:08:22.136Z,12.43
2018-09-26T14:10:51.328Z,6.80
2018-09-26T14:13:20.518Z,5.20
2018-09-26T14:15:49.517Z,6.70
2018-09-26T14:18:18.594Z,6.67
2018-09-26T14:20:47.594Z,6.47
2018-09-26T14:23:16.610Z,10.93
2018-09-26T14:25:45.574Z,9.90
2018-09-26T14:28:14.545Z,16.23
2018-09-26T14:30:43.626Z,11.03
2018-09-26T14:33:12.525Z,16.13
2018-09-26T14:35:42.158Z,10.33
2018-09-26T14:38:12.186Z,6.80
2018-09-26T14:40:41.052Z,7.80
2018-09-26T14:43:10.149Z,6.50
2018-09-26T14:45:39.182Z,8.47
2018-09-26T14:48:08.195Z,6.93
2018-09-26T14:50:37.198Z,6.80
2018-09-26T14:53:06.145Z,9.20
2018-09-26T14:55:34.957Z,8.13
2018-09-26T14:58:06.100Z,6.13
2018-09-26T15:00:35.413Z,9.77
2018-09-26T15:03:04.451Z,10.43
2018-09-26T15:05:33.529Z,13.73
2018-09-26T15:08:02.641Z,14.20
2018-09-26T15:10:31.557Z,11.53
2018-09-26T15:13:00.472Z,5.70
2018-09-26T15:15:29.433Z,15.70
2018-09-26T15:17:58.404Z,9.43
2018-09-26T15:20:27.444Z,11.90
2018-09-26T15:22:56.431Z,7.70
2018-09-26T15:25:25.353Z,8.77
2018-09-26T15:27:54.732Z,9.17
2018-09-26T15:30:23.762Z,14.67
2018-09-26T15:32:52.772Z,7.63
2018-09-26T15:35:21.802Z,8.40
2018-09-26T15:37:51.969Z,8.70
2018-09-26T15:40:21.667Z,6.63
2018-09-26T15:42:50.655Z,9.13
2018-09-26T15:45:19.609Z,12.10
2018-09-26T15:47:48.577Z,10.47
2018-09-26T15:50:17.703Z,9.37
2018-09-26T15:52:48.007Z,9.87
2018-09-26T15:55:17.194Z,12.70
2018-09-26T15:57:46.161Z,8.10
2018-09-26T16:00:15.261Z,8.50
2018-09-26T16:02:44.605Z,8.27
2018-09-26T16:05:14.559Z,9.03
2018-09-26T16:07:44.516Z,15.33
2018-09-26T16:10:13.568Z,10.63
2018-09-26T16:12:42.526Z,10.97
2018-09-26T16:15:11.501Z,6.80
2018-09-26T16:17:40.837Z,11.70
2018-09-26T16:20:09.944Z,11.50
2018-09-26T16:22:38.913Z,10.10
2018-09-26T16:25:08.109Z,8.60
2018-09-26T16:27:37.189Z,10.57
2018-09-26T16:30:06.508Z,8.73
2018-09-26T16:32:35.610Z,9.47
2018-09-26T16:35:04.660Z,14.47
2018-09-26T16:37:33.534Z,15.20
2018-09-26T16:40:02.570Z,9.37
2018-09-26T16:42:32.126Z,8.43
2018-09-26T16:45:01.203Z,10.80
2018-09-26T16:47:30.248Z,7.83
2018-09-26T16:49:59.605Z,9.90
2018-09-26T16:52:29.030Z,12.73
2018-09-26T16:54:58.118Z,8.53
2018-09-26T16:57:27.205Z,14.37
2018-09-26T16:59:56.233Z,10.47
2018-09-26T17:02:25.180Z,17.13
2018-09-26T17:04:54.245Z,14.63
2018-09-26T17:07:23.400Z,8.67
2018-09-26T17:09:52.473Z,18.13
2018-09-26T17:12:21.578Z,11.33
2018-09-26T17:14:50.481Z,20.53
2018-09-26T17:17:19.327Z,13.07
2018-09-26T17:19:48.249Z,8.10
2018-09-26T17:22:17.342Z,12.43
2018-09-26T17:24:46.289Z,14.90
2018-09-26T17:27:15.193Z,17.27
2018-09-26T17:29:44.180Z,11.17
2018-09-26T17:32:13.079Z,14.13
2018-09-26T17:34:42.155Z,12.43
2018-09-26T17:37:11.141Z,11.20
2018-09-26T17:39:40.087Z,18.10
2018-09-26T17:42:09.179Z,14.83
2018-09-26T17:44:38.036Z,13.93
2018-09-26T17:47:07.335Z,13.83
2018-09-26T17:49:36.249Z,16.37
2018-09-26T17:52:05.200Z,15.43
2018-09-26T17:54:34.603Z,24.00
2018-09-26T17:57:03.528Z,18.70
2018-09-26T17:59:32.477Z,12.33
2018-09-26T18:02:01.876Z,13.40
2018-09-26T18:04:31.213Z,11.13
2018-09-26T18:07:00.201Z,13.43
2018-09-26T18:09:29.203Z,13.80
2018-09-26T18:11:58.094Z,11.33
2018-09-26T18:14:27.255Z,12.50
2018-09-26T18:16:56.263Z,16.37
2018-09-26T18:19:25.257Z,15.67
2018-09-26T18:21:54.349Z,12.17
2018-09-26T18:24:25.731Z,12.23
2018-09-26T18:26:54.694Z,13.23
2018-09-26T18:29:23.689Z,13.90
2018-09-26T18:31:52.596Z,16.80
2018-09-26T18:34:21.558Z,13.77
2018-09-26T18:36:50.607Z,15.40
2018-09-26T18:39:19.787Z,13.50
2018-09-26T18:41:48.799Z,16.93
2018-09-26T18:44:17.782Z,12.90
2018-09-26T18:46:46.797Z,16.57
2018-09-26T18:49:15.639Z,12.63
2018-09-26T18:51:44.562Z,14.10
2018-09-26T18:54:13.596Z,14.60
2018-09-26T18:56:42.622Z,12.20
2018-09-26T18:59:11.815Z,16.97
2018-09-26T19:01:40.683Z,17.90
2018-09-26T19:04:09.599Z,12.30
2018-09-26T19:06:38.528Z,13.63
2018-09-26T19:09:10.566Z,11.17
2018-09-26T19:11:39.509Z,12.60
2018-09-26T19:14:08.390Z,14.30
2018-09-26T19:16:37.261Z,14.27
2018-09-26T19:19:06.491Z,13.73
2018-09-26T19:21:35.459Z,14.87
2018-09-26T19:24:04.200Z,12.60
2018-09-26T19:26:33.076Z,13.83
2018-09-26T19:29:02.133Z,14.30
2018-09-26T19:31:31.024Z,19.83
2018-09-26T19:33:59.950Z,15.00
2018-09-26T19:36:28.888Z,14.03
2018-09-26T19:38:58.280Z,16.63
2018-09-26T19:41:27.164Z,18.30
2018-09-26T19:43:57.539Z,19.07
2018-09-26T19:46:26.355Z,20.30
2018-09-26T19:48:55.305Z,20.93
2018-09-26T19:51:24.565Z,24.47
2018-09-26T19:53:53.457Z,19.47
2018-09-26T19:56:22.524Z,17.27
2018-09-26T19:58:51.325Z,20.27
2018-09-26T20:01:20.424Z,21.77
2018-09-26T20:03:49.412Z,17.90
2018-09-26T20:06:18.295Z,26.70
2018-09-26T20:08:47.313Z,18.17
2018-09-26T20:11:16.344Z,25.23
2018-09-26T20:13:45.232Z,19.70
2018-09-26T20:16:14.200Z,18.07
2018-09-26T20:18:43.117Z,13.53
2018-09-26T20:21:11.968Z,14.33
2018-09-26T20:23:40.897Z,18.23
2018-09-26T20:26:09.913Z,12.57
2018-09-26T20:28:38.776Z,14.93
2018-09-26T20:31:07.904Z,16.83
2018-09-26T20:33:36.841Z,17.23
2018-09-26T20:36:05.874Z,28.53
2018-09-26T20:38:34.758Z,13.70
2018-09-26T20:41:03.777Z,16.53
2018-09-26T20:43:32.641Z,20.93
2018-09-26T20:46:01.395Z,14.77
2018-09-26T20:48:30.298Z,14.70
2018-09-26T20:50:59.161Z,13.27
2018-09-26T20:53:28.068Z,13.47
2018-09-26T20:55:57.402Z,12.30
2018-09-26T20:58:26.248Z,20.97
2018-09-26T21:00:55.139Z,12.87
2018-09-26T21:03:24.080Z,13.93
2018-09-26T21:05:53.020Z,15.30
2018-09-26T21:08:22.095Z,19.03
2018-09-26T21:10:51.016Z,15.47
2018-09-26T21:13:19.929Z,15.87
2018-09-26T21:15:48.888Z,14.70
2018-09-26T21:18:17.826Z,18.27
2018-09-26T21:20:46.653Z,17.83
2018-09-26T21:23:15.742Z,16.00
2018-09-26T21:25:44.598Z,15.80
2018-09-26T21:28:13.547Z,19.23
2018-09-26T21:30:42.630Z,18.47
2018-09-26T21:33:11.510Z,16.93
2018-09-26T21:35:40.475Z,15.63
2018-09-26T21:38:09.390Z,19.27
2018-09-26T21:40:38.207Z,17.33
2018-09-26T21:43:07.188Z,17.37
2018-09-26T21:45:36.128Z,16.57
2018-09-26T21:48:04.989Z,16.23
2018-09-26T21:50:33.992Z,14.30
2018-09-26T21:53:02.953Z,17.47
2018-09-26T21:55:32.097Z,9.27
2018-09-26T21:58:01.068Z,15.80
2018-09-26T22:00:29.934Z,12.20
2018-09-26T22:02:58.816Z,10.47
2018-09-26T22:05:27.629Z,14.87
2018-09-26T22:07:56.821Z,12.47
2018-09-26T22:10:25.721Z,12.80
2018-09-26T22:12:54.604Z,17.40
2018-09-26T22:15:24.249Z,13.73
2018-09-26T22:17:54.285Z,15.27
2018-09-26T22:20:23.192Z,13.40
2018-09-26T22:22:52.096Z,14.10
2018-09-26T22:25:21.070Z,15.40
2018-09-26T22:27:50.651Z,15.37
2018-09-26T22:30:19.601Z,16.90
2018-09-26T22:32:48.460Z,12.10
2018-09-26T22:35:17.263Z,12.93
2018-09-26T22:37:46.140Z,13.33
2018-09-26T22:40:14.953Z,10.83
2018-09-26T22:42:43.883Z,10.03
2018-09-26T22:45:12.741Z,11.70
2018-09-26T22:47:41.653Z,11.07
2018-09-26T22:50:10.831Z,13.60
2018-09-26T22:52:39.680Z,10.97
2018-09-26T22:55:08.512Z,9.83
2018-09-26T22:57:37.687Z,10.77
2018-09-26T23:00:06.568Z,11.60
2018-09-26T23:02:35.386Z,8.90
2018-09-26T23:05:04.313Z,13.50
2018-09-26T23:07:33.272Z,13.53
2018-09-26T23:10:02.255Z,10.13
2018-09-26T23:12:31.152Z,8.30
2018-09-26T23:14:59.988Z,9.30
2018-09-26T23:17:28.876Z,10.00
2018-09-26T23:19:57.663Z,8.60
2018-09-26T23:22:26.504Z,11.97
2018-09-26T23:24:55.361Z,12.37
2018-09-26T23:27:24.949Z,9.20
2018-09-26T23:29:53.704Z,7.83
2018-09-26T23:32:22.528Z,8.50
2018-09-26T23:34:52.377Z,12.47
2018-09-26T23:37:21.210Z,9.03
2018-09-26T23:39:50.042Z,8.80
2018-09-26T23:42:18.860Z,9.80
2018-09-26T23:44:47.738Z,11.80
2018-09-26T23:47:16.720Z,10.60
2018-09-26T23:49:45.533Z,11.93
2018-09-26T23:52:14.444Z,8.03
2018-09-26T23:54:43.402Z,8.97
2018-09-26T23:57:12.277Z,8.30
2018-09-26T23:59:41.098Z,8.60
